Time;durP1;ratioP1;P1;durP2;ratioP2;P2;SDS_P1;SDS_P2;PMS_P1;PMS_P2;Temp;Humidity;BMP_temperature;BMP_pressure;BME280_temperature;BME280_humidity;BME280_pressure;Samples;Min_cycle;Max_cycle;Signal;HPM_P1;HPM_P2
2023/12/10 00:02:20;;;;;;;8.63;1.23;;;;;;;8.60;100.00;99867.88;5095719;27;97527;-28
2023/12/10 00:04:45;;;;;;;1.80;1.05;;;;;;;8.58;100.00;99861.72;5095789;27;97753;-28
2023/12/10 00:07:11;;;;;;;4.45;0.90;;;;;;;8.54;100.00;99871.88;5095917;27;96675;-28
2023/12/10 00:09:37;;;;;;;2.75;1.45;;;;;;;8.52;100.00;99873.81;5096636;27;96728;-28
2023/12/10 00:12:02;;;;;;;5.75;0.63;;;;;;;8.50;100.00;99873.91;5099346;27;97375;-28
2023/12/10 00:14:28;;;;;;;1.05;0.65;;;;;;;8.44;100.00;99855.47;5080918;27;100788;-28
2023/12/10 00:16:53;;;;;;;1.27;0.38;;;;;;;8.44;100.00;99871.66;5099651;27;96596;-27
2023/12/10 00:19:19;;;;;;;2.22;0.55;;;;;;;8.41;100.00;99860.19;5099496;27;96721;-28
2023/12/10 00:21:45;;;;;;;4.07;0.60;;;;;;;8.38;100.00;99860.38;5098493;27;99363;-29
2023/12/10 00:24:11;;;;;;;2.67;0.65;;;;;;;8.39;100.00;99870.19;5099136;27;97894;-28
2023/12/10 00:26:36;;;;;;;4.75;0.63;;;;;;;8.38;100.00;99868.47;5099039;27;96566;-28
2023/12/10 00:29:02;;;;;;;1.75;0.47;;;;;;;8.34;100.00;99883.97;5099235;27;96761;-28
2023/12/10 00:31:27;;;;;;;11.85;1.80;;;;;;;8.34;100.00;99869.63;5098690;27;99249;-28
2023/12/10 00:33:52;;;;;;;10.10;0.47;;;;;;;8.31;100.00;99868.00;5099233;27;97321;-28
2023/12/10 00:36:18;;;;;;;7.03;1.15;;;;;;;8.28;100.00;99863.69;5099217;27;96618;-27
2023/12/10 00:38:45;;;;;;;3.75;1.08;;;;;;;8.28;100.00;99871.78;5099497;27;96808;-28
2023/12/10 00:41:11;;;;;;;1.88;0.45;;;;;;;8.31;100.00;99878.81;5079952;27;101141;-28
2023/12/10 00:43:37;;;;;;;2.33;0.50;;;;;;;8.30;100.00;99882.47;5099013;27;97838;-28
2023/12/10 00:46:02;;;;;;;4.47;1.02;;;;;;;8.32;100.00;99885.94;5063036;27;96478;-28
2023/12/10 00:48:28;;;;;;;3.90;0.82;;;;;;;8.29;100.00;99883.44;5099219;27;96749;-28
2023/12/10 00:50:53;;;;;;;3.75;0.70;;;;;;;8.30;100.00;99885.19;5079857;27;101360;-28
2023/12/10 00:53:19;;;;;;;5.65;1.60;;;;;;;8.31;100.00;99889.59;5098569;27;97787;-28
2023/12/10 00:55:44;;;;;;;5.57;1.80;;;;;;;8.27;100.00;99902.44;5098208;27;96530;-28
2023/12/10 00:58:11;;;;;;;1.38;0.45;;;;;;;8.29;100.00;99892.41;5098612;27;97016;-28
2023/12/10 01:00:36;;;;;;;13.65;1.73;;;;;;;8.30;100.00;99904.94;5079722;27;99257;-28
2023/12/10 01:03:04;;;;;;;4.43;1.05;;;;;;;8.25;100.00;99884.63;5098980;27;97264;-28
2023/12/10 01:05:29;;;;;;;3.70;0.85;;;;;;;8.25;100.00;99893.59;5080047;27;96628;-29
2023/12/10 01:07:55;;;;;;;4.47;0.65;;;;;;;8.32;100.00;99898.56;5098519;27;96829;-27
2023/12/10 01:10:20;;;;;;;2.65;0.95;;;;;;;8.33;100.00;99905.69;5097874;27;97850;-27
2023/12/10 01:12:46;;;;;;;1.95;0.85;;;;;;;8.36;100.00;99895.53;5098346;27;97599;-27
2023/12/10 01:15:11;;;;;;;1.95;0.75;;;;;;;8.43;100.00;99891.50;5098705;27;96477;-27
2023/12/10 01:17:36;;;;;;;7.10;0.98;;;;;;;8.50;100.00;99903.59;5098555;27;96781;-27
2023/12/10 01:20:05;;;;;;;3.95;0.52;;;;;;;8.48;99.42;99915.47;5098312;27;97998;-27
2023/12/10 01:22:30;;;;;;;5.28;0.73;;;;;;;8.48;99.10;99894.72;5079423;27;100781;-28
2023/12/10 01:24:57;;;;;;;9.07;1.70;;;;;;;8.56;100.00;99917.66;5098219;27;96618;-28
2023/12/10 01:27:23;;;;;;;4.18;1.35;;;;;;;8.53;99.41;99904.34;5079992;27;96720;-28
2023/12/10 01:29:48;;;;;;;2.00;0.80;;;;;;;8.49;98.83;99917.22;5097889;27;99069;-28
2023/12/10 01:32:13;;;;;;;1.73;0.73;;;;;;;8.55;98.81;99930.28;5098023;27;97808;-28
2023/12/10 01:34:41;;;;;;;1.38;0.93;;;;;;;8.57;98.03;99924.78;5097944;27;96532;-28
2023/12/10 01:37:07;;;;;;;1.17;0.52;;;;;;;8.59;97.80;99934.50;5079580;27;96816;-28
2023/12/10 01:39:33;;;;;;;1.17;0.75;;;;;;;8.62;97.80;99936.13;5097951;27;97832;-28
2023/12/10 01:41:58;;;;;;;5.07;1.27;;;;;;;8.62;97.48;99938.81;5079120;27;100861;-27
2023/12/10 01:44:24;;;;;;;2.97;0.90;;;;;;;8.63;96.06;99943.28;5097970;27;96453;-27
2023/12/10 01:46:50;;;;;;;4.63;0.88;;;;;;;8.61;96.67;99937.97;5098402;27;96734;-28
2023/12/10 01:49:17;;;;;;;3.25;1.80;;;;;;;8.60;97.43;99928.13;5097462;27;99243;-27
2023/12/10 01:51:44;;;;;;;6.03;1.00;;;;;;;8.64;96.15;99934.19;5079342;27;101105;-28
2023/12/10 01:54:23;;;;;;;9.52;0.95;;;;;;;8.68;96.22;99957.31;5079117;27;96780;-28
2023/12/10 01:56:49;;;;;;;12.48;1.58;;;;;;;8.68;95.71;99949.22;5078588;27;96719;-29
2023/12/10 01:59:19;;;;;;;2.83;1.00;;;;;;;8.71;95.78;99954.41;5078276;27;101058;-28
2023/12/10 02:01:46;;;;;;;3.63;0.73;;;;;;;8.68;95.14;99941.13;5078972;27;100659;-27
2023/12/10 02:04:12;;;;;;;8.80;1.50;;;;;;;8.71;96.07;99967.91;5079032;27;96608;-27
2023/12/10 02:06:38;;;;;;;1.83;0.60;;;;;;;8.67;96.14;99963.66;5097796;27;96773;-28
2023/12/10 02:09:09;;;;;;;4.38;0.93;;;;;;;8.61;96.79;99961.41;5097326;27;97857;-27
2023/12/10 02:11:36;;;;;;;2.42;0.75;;;;;;;8.63;96.53;99965.72;5097586;27;97751;-27
2023/12/10 02:14:03;;;;;;;6.60;1.15;;;;;;;8.65;96.14;99958.41;5078901;27;96719;-28
2023/12/10 02:16:28;;;;;;;3.08;0.70;;;;;;;8.66;95.90;99975.44;5079247;27;96890;-29
2023/12/10 02:18:54;;;;;;;3.13;1.23;;;;;;;8.64;94.50;99961.19;5097690;27;97266;-28
2023/12/10 02:21:19;;;;;;;10.02;1.85;;;;;;;8.68;94.81;99990.56;5078265;27;99182;-28
2023/12/10 02:23:55;;;;;;;0.50;0.28;;;;;;;8.74;93.88;99974.91;5096796;27;96624;-28
2023/12/10 02:26:20;;;;;;;4.53;1.48;;;;;;;8.75;94.24;100007.22;5097021;27;96759;-27
2023/12/10 02:28:47;;;;;;;11.52;1.13;;;;;;;8.77;94.52;99990.91;5096825;27;99333;-28
2023/12/10 02:31:12;;;;;;;4.78;1.15;;;;;;;8.69;94.74;99995.00;5096882;27;99197;-28
2023/12/10 02:33:38;;;;;;;1.23;0.60;;;;;;;8.71;95.27;100011.09;5096425;27;96472;-28
2023/12/10 02:36:03;;;;;;;6.68;1.58;;;;;;;8.68;95.35;100014.00;5097190;27;97176;-28
2023/12/10 02:38:29;;;;;;;7.47;0.55;;;;;;;8.70;94.52;99994.03;5096708;27;99425;-29
2023/12/10 02:40:54;;;;;;;7.13;0.68;;;;;;;8.72;95.08;100002.00;5097373;27;97794;-27
2023/12/10 02:43:21;;;;;;;5.82;0.77;;;;;;;8.74;94.77;100010.88;5097067;27;96577;-28
2023/12/10 02:45:47;;;;;;;5.82;1.17;;;;;;;8.73;94.10;100019.09;5078403;27;96859;-28
2023/12/10 02:48:12;;;;;;;5.95;0.98;;;;;;;8.71;93.69;100019.19;5096032;27;99368;-28
2023/12/10 02:50:37;;;;;;;3.88;0.80;;;;;;;8.75;93.34;100009.94;5096404;27;98919;-28
2023/12/10 02:53:03;;;;;;;3.42;1.65;;;;;;;8.80;91.90;100026.69;5096952;27;96696;-28
2023/12/10 02:55:28;;;;;;;5.53;1.35;;;;;;;8.77;92.91;100039.50;5096226;27;96694;-27
2023/12/10 02:57:54;;;;;;;7.53;1.75;;;;;;;8.80;93.37;100040.19;5096878;27;97365;-27
2023/12/10 03:00:19;;;;;;;4.75;0.70;;;;;;;8.78;91.85;100058.31;5096869;27;97348;-27
2023/12/10 03:02:44;;;;;;;2.40;0.77;;;;;;;8.80;91.60;100042.88;5096613;27;96544;-27
2023/12/10 03:05:10;;;;;;;5.50;1.30;;;;;;;8.85;91.15;100056.06;5096971;27;96938;-27
2023/12/10 03:07:35;;;;;;;6.65;1.10;;;;;;;8.84;91.01;100035.44;5096481;27;97809;-28
2023/12/10 03:10:01;;;;;;;3.35;1.38;;;;;;;8.86;90.39;100074.00;5096275;27;99211;-28
2023/12/10 03:12:26;;;;;;;5.03;1.17;;;;;;;8.87;91.72;100065.81;5096265;27;96622;-28
2023/12/10 03:14:52;;;;;;;3.72;0.52;;;;;;;8.85;90.57;100051.53;5096724;27;96725;-28
2023/12/10 03:17:17;;;;;;;5.45;0.82;;;;;;;8.82;90.08;100067.94;5096141;27;97801;-28
2023/12/10 03:19:44;;;;;;;4.70;0.73;;;;;;;8.90;90.19;100060.19;5096228;27;97786;-28
2023/12/10 03:22:10;;;;;;;1.98;0.38;;;;;;;8.88;90.19;100061.25;5077768;27;96708;-27
2023/12/10 03:24:35;;;;;;;4.47;1.17;;;;;;;8.90;88.72;100084.50;5096310;27;96939;-28
2023/12/10 03:27:00;;;;;;;11.32;1.15;;;;;;;8.91;88.33;100071.84;5096018;27;97903;-28
2023/12/10 03:29:26;;;;;;;7.80;1.17;;;;;;;8.92;89.31;100081.69;5096817;27;97311;-27
2023/12/10 03:31:51;;;;;;;6.68;0.98;;;;;;;8.93;88.91;100080.72;5078429;27;96710;-28
2023/12/10 03:34:17;;;;;;;8.32;1.60;;;;;;;8.99;89.28;100068.66;5096585;27;96770;-28
2023/12/10 03:36:42;;;;;;;6.30;1.20;;;;;;;8.98;88.57;100096.63;5095571;27;97605;-28
2023/12/10 03:39:07;;;;;;;4.20;0.90;;;;;;;8.99;88.36;100115.44;5096166;27;97786;-27
2023/12/10 03:41:33;;;;;;;10.95;1.40;;;;;;;8.99;88.99;100133.47;5096400;27;96611;-28
2023/12/10 03:43:58;;;;;;;7.15;1.60;;;;;;;8.99;88.26;100104.63;5096117;27;96920;-29
2023/12/10 03:46:23;;;;;;;5.80;1.38;;;;;;;8.96;88.43;100130.97;5096003;27;97802;-28
2023/12/10 03:48:49;;;;;;;5.57;1.40;;;;;;;8.97;88.37;100108.41;5095879;27;97758;-28
2023/12/10 03:51:14;;;;;;;2.97;0.85;;;;;;;9.00;87.75;100138.75;5095879;27;96521;-28
2023/12/10 03:53:40;;;;;;;7.43;1.55;;;;;;;8.98;87.18;100119.09;5096619;27;96822;-28
2023/12/10 03:56:05;;;;;;;0.40;0.22;;;;;;;9.04;87.57;100158.34;5095352;27;97887;-27
2023/12/10 03:58:31;;;;;;;4.00;1.15;;;;;;;9.00;87.46;100141.47;5095800;27;97943;-28
2023/12/10 04:00:56;;;;;;;0.40;0.40;;;;;;;8.94;88.17;100141.88;5095431;27;96611;-28
2023/12/10 04:03:21;;;;;;;0.85;0.43;;;;;;;8.98;88.21;100146.09;5096273;27;96837;-28
2023/12/10 04:05:47;;;;;;;4.35;1.10;;;;;;;8.98;88.20;100164.16;5095653;27;97421;-27
2023/12/10 04:08:12;;;;;;;6.63;1.48;;;;;;;8.97;88.31;100174.09;5095667;27;97753;-28
2023/12/10 04:10:38;;;;;;;5.72;0.88;;;;;;;8.95;88.29;100140.06;5096026;27;96478;-28
2023/12/10 04:13:03;;;;;;;8.20;1.85;;;;;;;9.00;87.93;100173.03;5096077;27;96877;-28
2023/12/10 04:15:28;;;;;;;4.18;1.45;;;;;;;8.96;88.40;100184.97;5076971;27;101489;-27
2023/12/10 04:17:54;;;;;;;4.70;1.10;;;;;;;8.96;88.12;100183.16;5095923;27;97181;-27
2023/12/10 04:20:19;;;;;;;9.38;1.25;;;;;;;8.97;88.48;100202.94;5095708;27;96526;-28
2023/12/10 04:22:44;;;;;;;0.38;0.38;;;;;;;8.90;87.81;100186.25;5095870;27;96745;-28
2023/12/10 04:25:10;;;;;;;7.07;0.85;;;;;;;8.95;88.33;100204.88;5094356;27;98680;-29
2023/12/10 04:27:35;;;;;;;1.45;0.55;;;;;;;8.95;87.75;100212.97;5095907;27;97356;-30
2023/12/10 04:30:01;;;;;;;2.80;0.90;;;;;;;8.91;87.71;100229.38;5095500;27;96608;-28
2023/12/10 04:32:26;;;;;;;4.43;1.17;;;;;;;8.96;88.06;100203.88;5095619;27;96788;-29
2023/12/10 04:34:52;;;;;;;6.65;0.90;;;;;;;8.96;88.55;100217.41;5095110;27;97341;-28
2023/12/10 04:37:18;;;;;;;2.92;0.57;;;;;;;8.95;88.18;100227.34;5095040;27;99338;-28
2023/12/10 04:39:45;;;;;;;2.30;0.77;;;;;;;8.96;88.21;100212.84;5095588;27;96432;-28
2023/12/10 04:42:10;;;;;;;3.13;0.93;;;;;;;8.92;87.84;100217.59;5095783;27;96679;-27
2023/12/10 04:44:35;;;;;;;11.02;2.28;;;;;;;8.89;88.42;100212.41;5095315;27;97886;-28
2023/12/10 04:47:01;;;;;;;3.83;0.85;;;;;;;8.88;88.39;100231.41;5095198;27;97424;-28
2023/12/10 04:49:26;;;;;;;9.90;1.35;;;;;;;8.93;88.31;100231.97;5094791;27;96771;-27
2023/12/10 04:51:51;;;;;;;4.32;0.90;;;;;;;8.89;88.73;100225.91;5095784;27;96725;-27
2023/12/10 04:54:17;;;;;;;5.22;1.35;;;;;;;8.89;88.07;100260.13;5095122;27;97856;-27
2023/12/10 04:56:42;;;;;;;3.80;1.05;;;;;;;8.86;88.34;100245.00;5096513;27;98812;-27
2023/12/10 04:59:08;;;;;;;3.88;0.82;;;;;;;8.88;88.15;100274.63;5098866;27;96528;-28
2023/12/10 05:01:33;;;;;;;2.78;0.73;;;;;;;8.84;88.29;100271.25;5099015;27;96781;-28
2023/12/10 05:03:59;;;;;;;5.82;1.17;;;;;;;8.87;88.66;100284.56;5098375;27;97976;-28
2023/12/10 05:06:24;;;;;;;5.05;0.93;;;;;;;8.82;88.79;100275.00;5098981;27;97245;-28
2023/12/10 05:08:49;;;;;;;1.58;0.38;;;;;;;8.81;88.55;100284.06;5098469;27;96651;-28
2023/12/10 05:11:15;;;;;;;1.65;0.65;;;;;;;8.82;88.55;100300.19;5098858;27;96769;-27
2023/12/10 05:13:40;;;;;;;6.63;1.45;;;;;;;8.81;88.30;100281.38;5097972;27;97380;-28
2023/12/10 05:16:06;;;;;;;5.07;0.35;;;;;;;8.83;88.95;100311.84;5098614;27;97175;-28
2023/12/10 05:18:31;;;;;;;6.68;0.80;;;;;;;8.79;88.51;100297.66;5098131;27;96723;-27
2023/12/10 05:20:56;;;;;;;3.72;0.60;;;;;;;8.76;88.76;100318.59;5098293;27;96796;-27
2023/12/10 05:23:22;;;;;;;6.72;0.93;;;;;;;8.74;88.93;100324.09;5098185;27;97872;-28
2023/12/10 05:25:47;;;;;;;4.30;0.90;;;;;;;8.73;88.69;100327.78;5097970;27;97893;-28
2023/12/10 05:28:13;;;;;;;2.30;1.10;;;;;;;8.73;89.48;100343.97;5098183;27;96696;-28
2023/12/10 05:30:38;;;;;;;8.57;1.67;;;;;;;8.75;89.19;100339.34;5098769;27;96512;-27
2023/12/10 05:33:03;;;;;;;8.60;1.38;;;;;;;8.75;89.07;100333.06;5097846;27;97969;-28
2023/12/10 05:35:29;;;;;;;5.65;1.55;;;;;;;8.73;89.28;100346.66;5097721;27;99171;-28
2023/12/10 05:37:54;;;;;;;2.05;0.85;;;;;;;8.75;89.39;100354.66;5097749;27;96554;-27
2023/12/10 05:40:20;;;;;;;4.40;0.93;;;;;;;8.73;89.03;100362.00;5098308;27;96750;-29
2023/12/10 05:42:45;;;;;;;8.65;1.05;;;;;;;8.73;88.69;100362.88;5098025;27;97745;-28
2023/12/10 05:45:11;;;;;;;5.35;1.25;;;;;;;8.73;88.83;100352.06;5097903;27;97316;-28
2023/12/10 05:47:37;;;;;;;3.50;1.23;;;;;;;8.78;88.95;100373.38;5097581;27;97262;-27
2023/12/10 05:50:03;;;;;;;1.52;0.50;;;;;;;8.78;89.09;100390.44;5097970;27;96920;-29
2023/12/10 05:52:28;;;;;;;4.32;1.08;;;;;;;8.74;88.76;100390.72;5097679;27;97748;-28
2023/12/10 05:54:53;;;;;;;5.95;0.65;;;;;;;8.71;88.86;100395.34;5098176;27;97723;-28
2023/12/10 05:57:19;;;;;;;8.93;1.17;;;;;;;8.74;88.82;100394.28;5097668;27;96694;-28
2023/12/10 05:59:44;;;;;;;4.55;1.42;;;;;;;8.69;89.07;100389.19;5098235;27;96749;-27
2023/12/10 06:02:10;;;;;;;2.55;1.13;;;;;;;8.75;89.40;100398.75;5096741;27;99221;-28
2023/12/10 06:04:35;;;;;;;1.67;0.52;;;;;;;8.75;88.80;100389.75;5097456;27;97861;-28
2023/12/10 06:07:00;;;;;;;4.70;0.55;;;;;;;8.76;88.85;100402.31;5096698;27;96507;-27
2023/12/10 06:09:26;;;;;;;1.00;0.55;;;;;;;8.74;89.49;100432.09;5097541;27;96734;-28
2023/12/10 06:11:53;;;;;;;2.40;0.93;;;;;;;8.74;89.12;100415.91;5097352;27;97526;-27
2023/12/10 06:14:18;;;;;;;3.15;1.33;;;;;;;8.71;89.61;100403.47;5078663;27;100968;-27
2023/12/10 06:16:44;;;;;;;5.75;1.20;;;;;;;8.71;89.83;100414.25;5097376;27;96680;-28
2023/12/10 06:19:09;;;;;;;3.67;1.13;;;;;;;8.71;89.64;100424.19;5098102;27;96722;-28
2023/12/10 06:21:35;;;;;;;2.30;0.68;;;;;;;8.72;89.51;100442.13;5078639;27;100656;-27
2023/12/10 06:24:00;;;;;;;2.38;1.08;;;;;;;8.73;89.63;100451.13;5097039;27;98767;-28
2023/12/10 06:26:25;;;;;;;4.75;0.73;;;;;;;8.72;90.00;100439.41;5096887;27;96575;-27
2023/12/10 06:28:51;;;;;;;3.90;0.55;;;;;;;8.66;90.22;100459.56;5097334;27;96788;-28
2023/12/10 06:31:16;;;;;;;1.35;0.38;;;;;;;8.68;89.58;100456.78;5097349;27;97308;-28
2023/12/10 06:33:43;;;;;;;2.40;0.68;;;;;;;8.69;89.28;100482.81;5096892;27;97858;-28
2023/12/10 06:36:08;;;;;;;9.80;1.42;;;;;;;8.71;89.92;100475.50;5097232;27;96481;-28
2023/12/10 06:38:33;;;;;;;2.63;0.80;;;;;;;8.67;89.71;100472.09;5097389;27;96713;-27
2023/12/10 06:40:59;;;;;;;4.43;1.17;;;;;;;8.68;90.08;100498.16;5096973;27;97923;-28
2023/12/10 06:43:26;;;;;;;7.40;0.98;;;;;;;8.68;90.16;100497.28;5097242;27;97747;-27
2023/12/10 06:45:51;;;;;;;3.97;1.05;;;;;;;8.67;89.55;100500.94;5078306;27;96580;-28
2023/12/10 06:48:17;;;;;;;6.95;0.73;;;;;;;8.67;89.95;100506.34;5097127;27;96792;-27
2023/12/10 06:50:42;;;;;;;4.22;0.75;;;;;;;8.61;89.64;100482.41;5095986;27;97478;-28
2023/12/10 06:53:08;;;;;;;2.05;0.57;;;;;;;8.62;90.22;100490.41;5096765;27;97357;-28
2023/12/10 06:55:33;;;;;;;5.70;0.52;;;;;;;8.64;89.45;100499.28;5077792;27;96976;-28
2023/12/10 06:57:59;;;;;;;2.45;0.47;;;;;;;8.65;89.53;100503.75;5096841;27;96657;-27
2023/12/10 07:00:24;;;;;;;6.68;0.95;;;;;;;8.62;89.69;100500.34;5096201;27;99486;-28
2023/12/10 07:02:49;;;;;;;4.32;1.05;;;;;;;8.61;89.64;100504.88;5096687;27;97577;-29
2023/12/10 07:05:15;;;;;;;5.25;0.93;;;;;;;8.65;89.73;100502.84;5096950;27;96563;-27
2023/12/10 07:07:40;;;;;;;6.72;0.88;;;;;;;8.63;89.80;100508.34;5097191;27;96905;-27
2023/12/10 07:10:06;;;;;;;1.67;0.93;;;;;;;8.65;89.69;100516.34;5096366;27;99209;-27
2023/12/10 07:12:31;;;;;;;0.32;0.10;;;;;;;8.63;89.67;100519.16;5096529;27;98092;-28
2023/12/10 07:14:57;;;;;;;3.83;0.75;;;;;;;8.62;89.82;100536.31;5096452;27;96499;-28
2023/12/10 07:17:22;;;;;;;1.52;0.68;;;;;;;8.63;89.90;100535.34;5096886;27;96760;-27
2023/12/10 07:19:48;;;;;;;2.53;0.22;;;;;;;8.60;90.51;100529.25;5095868;27;97449;-28
2023/12/10 07:22:13;;;;;;;4.65;0.98;;;;;;;8.57;90.22;100551.91;5096416;27;96463;-28
2023/12/10 07:24:38;;;;;;;3.97;0.95;;;;;;;8.61;90.43;100563.41;5096609;27;96709;-27
2023/12/10 07:27:04;;;;;;;2.00;0.68;;;;;;;8.60;90.41;100577.84;5096010;27;96635;-27
2023/12/10 07:29:29;;;;;;;4.50;0.80;;;;;;;8.59;90.45;100571.59;5096088;27;97650;-28
2023/12/10 07:31:55;;;;;;;0.85;0.55;;;;;;;8.60;90.16;100583.25;5096451;27;97830;-28
2023/12/10 07:34:20;;;;;;;0.22;0.22;;;;;;;8.52;90.29;100585.53;5096419;27;96597;-28
2023/12/10 07:36:45;;;;;;;3.28;0.73;;;;;;;8.55;90.82;100591.59;5096517;27;96736;-27
2023/12/10 07:39:13;;;;;;;2.58;0.75;;;;;;;8.60;90.76;100591.34;5095504;27;98017;-28
2023/12/10 07:41:38;;;;;;;3.45;0.50;;;;;;;8.54;90.25;100589.88;5095975;27;97294;-28
2023/12/10 07:44:04;;;;;;;2.10;1.08;;;;;;;8.60;90.94;100603.00;5096515;27;96705;-27
2023/12/10 07:46:29;;;;;;;3.15;1.25;;;;;;;8.61;90.44;100610.16;5095986;27;96750;-28
2023/12/10 07:48:55;;;;;;;3.65;0.60;;;;;;;8.60;90.53;100612.94;5077301;27;99063;-27
2023/12/10 07:51:21;;;;;;;5.38;0.60;;;;;;;8.64;90.80;100611.81;5076994;27;100673;-27
2023/12/10 07:53:46;;;;;;;1.88;0.73;;;;;;;8.58;91.14;100614.84;5096173;27;96569;-27
2023/12/10 07:56:12;;;;;;;7.45;0.82;;;;;;;8.59;91.06;100614.78;5096032;27;96730;-27
2023/12/10 07:58:37;;;;;;;5.15;1.05;;;;;;;8.64;90.96;100620.78;5095715;27;97814;-27
2023/12/10 08:01:03;;;;;;;7.78;1.08;;;;;;;8.62;90.47;100611.03;5095298;27;99081;-28
2023/12/10 08:03:28;;;;;;;2.85;0.77;;;;;;;8.64;90.71;100614.53;5095404;27;96654;-29
2023/12/10 08:05:53;;;;;;;4.85;1.42;;;;;;;8.63;90.74;100599.28;5096080;27;97175;-29
2023/12/10 08:08:19;;;;;;;3.70;0.65;;;;;;;8.64;90.27;100623.47;5095958;27;97296;-27
2023/12/10 08:10:46;;;;;;;5.03;0.95;;;;;;;8.63;90.80;100626.28;5095988;27;97214;-28
2023/12/10 08:13:11;;;;;;;6.22;0.63;;;;;;;8.65;90.52;100656.75;5095917;27;96670;-27
2023/12/10 08:15:36;;;;;;;0.43;0.32;;;;;;;8.68;90.03;100645.78;5095783;27;96828;-27
2023/12/10 08:18:02;;;;;;;1.27;0.57;;;;;;;8.67;90.46;100641.34;5095600;27;97819;-28
2023/12/10 08:20:28;;;;;;;4.65;1.17;;;;;;;8.64;90.85;100649.63;5077063;27;100710;-28
2023/12/10 08:22:53;;;;;;;3.75;0.95;;;;;;;8.67;90.31;100647.59;5095842;27;96657;-27
2023/12/10 08:25:18;;;;;;;0.17;0.17;;;;;;;8.61;90.59;100657.91;5095794;27;96623;-28
2023/12/10 08:27:44;;;;;;;4.53;0.60;;;;;;;8.68;90.27;100668.25;5094813;27;98938;-28
2023/12/10 08:30:09;;;;;;;0.47;0.32;;;;;;;8.68;90.81;100672.81;5095258;27;98690;-27
2023/12/10 08:32:35;;;;;;;1.65;0.60;;;;;;;8.69;90.36;100667.28;5098947;27;96592;-28
2023/12/10 08:35:00;;;;;;;2.30;0.30;;;;;;;8.67;90.60;100676.44;5099307;27;96737;-27
2023/12/10 08:37:26;;;;;;;10.25;0.47;;;;;;;8.66;90.70;100661.22;5098599;27;98811;-27
2023/12/10 08:39:52;;;;;;;2.13;0.50;;;;;;;8.70;90.90;100671.75;5099059;27;97834;-27
2023/12/10 08:42:17;;;;;;;4.68;0.55;;;;;;;8.66;91.32;100662.06;5098888;27;96967;-28
2023/12/10 08:44:42;;;;;;;4.22;1.05;;;;;;;8.65;91.09;100667.53;5099281;27;96889;-28
2023/12/10 08:47:08;;;;;;;1.13;0.45;;;;;;;8.69;91.29;100669.13;5098776;27;97329;-27
2023/12/10 08:49:33;;;;;;;2.70;0.70;;;;;;;8.68;91.56;100678.19;5098671;27;97842;-28
2023/12/10 08:51:59;;;;;;;2.25;0.38;;;;;;;8.71;91.53;100696.91;5098625;27;96489;-27
2023/12/10 08:54:24;;;;;;;1.95;0.63;;;;;;;8.66;91.15;100688.22;5099011;27;96710;-28
2023/12/10 08:56:50;;;;;;;3.15;0.60;;;;;;;8.67;91.63;100695.34;5098148;27;97872;-27
2023/12/10 08:59:15;;;;;;;5.72;0.82;;;;;;;8.68;91.55;100686.31;5098397;27;97748;-27
2023/12/10 09:01:43;;;;;;;1.83;0.35;;;;;;;8.67;91.29;100689.94;5098749;27;96457;-28
2023/12/10 09:04:08;;;;;;;0.98;0.47;;;;;;;8.62;91.40;100692.91;5099259;27;96627;-27
2023/12/10 09:06:34;;;;;;;7.43;0.70;;;;;;;8.66;90.99;100693.59;5098593;27;97991;-27
2023/12/10 09:08:59;;;;;;;2.97;0.77;;;;;;;8.67;91.36;100700.75;5098758;27;99039;-27
2023/12/10 09:11:25;;;;;;;1.27;0.60;;;;;;;8.65;91.69;100692.75;5098567;27;96655;-28
2023/12/10 09:13:50;;;;;;;4.43;0.98;;;;;;;8.63;90.92;100689.25;5098105;27;96717;-27
2023/12/10 09:16:18;;;;;;;4.05;0.57;;;;;;;8.67;90.84;100700.75;5098220;27;97298;-28
2023/12/10 09:18:44;;;;;;;2.75;0.28;;;;;;;8.71;91.41;100710.41;5079559;27;100924;-28
2023/12/10 09:21:09;;;;;;;1.95;0.45;;;;;;;8.67;91.49;100704.31;5098603;27;96732;-28
2023/12/10 09:23:35;;;;;;;8.10;0.70;;;;;;;8.64;91.25;100704.47;5098611;27;96751;-28
2023/12/10 09:26:01;;;;;;;6.85;1.00;;;;;;;8.73;91.28;100722.00;5097926;27;97322;-27
2023/12/10 09:28:26;;;;;;;2.47;0.57;;;;;;;8.72;91.31;100709.44;5079228;27;100987;-27
2023/12/10 09:30:52;;;;;;;6.47;0.77;;;;;;;8.79;91.16;100710.84;5098418;27;96477;-27
2023/12/10 09:33:17;;;;;;;1.20;0.43;;;;;;;8.84;91.74;100708.78;5098983;27;96737;-27
2023/12/10 09:35:43;;;;;;;1.58;0.52;;;;;;;8.88;90.97;100713.03;5079416;27;100193;-27
2023/12/10 09:38:09;;;;;;;3.83;0.85;;;;;;;8.97;91.03;100722.44;5098054;27;97027;-27
2023/12/10 09:40:34;;;;;;;2.72;0.65;;;;;;;9.02;90.36;100714.94;5097822;27;96578;-27
2023/12/10 09:43:01;;;;;;;1.38;0.57;;;;;;;9.06;90.19;100719.22;5097616;27;96818;-28
2023/12/10 09:45:26;;;;;;;0.52;0.28;;;;;;;9.07;89.59;100736.31;5079282;27;100976;-27
2023/12/10 09:47:52;;;;;;;1.25;0.52;;;;;;;9.12;89.78;100740.47;5079125;27;100728;-29
2023/12/10 09:50:21;;;;;;;1.27;0.70;;;;;;;9.13;89.71;100734.13;5097637;27;96707;-28
2023/12/10 09:52:47;;;;;;;7.85;0.85;;;;;;;9.13;89.61;100746.78;5079340;27;96772;-27
2023/12/10 09:55:12;;;;;;;4.47;0.95;;;;;;;9.16;89.70;100730.38;5078430;27;101043;-28
2023/12/10 09:57:39;;;;;;;0.65;0.35;;;;;;;9.20;89.11;100739.16;5098030;27;96634;-29
2023/12/10 10:00:06;;;;;;;6.00;1.60;;;;;;;9.18;89.29;100730.31;5079218;27;96602;-27
2023/12/10 10:02:34;;;;;;;6.03;0.75;;;;;;;9.23;89.38;100728.19;5079314;27;96907;-28
2023/12/10 10:05:02;;;;;;;1.48;0.50;;;;;;;9.25;88.72;100740.66;5078355;27;99300;-28
2023/12/10 10:07:31;;;;;;;7.43;0.95;;;;;;;9.30;89.28;100740.41;5078848;27;101100;-27
2023/12/10 10:09:56;;;;;;;3.47;0.40;;;;;;;9.28;88.76;100732.38;5097716;27;96590;-28
2023/12/10 10:12:28;;;;;;;0.82;0.47;;;;;;;9.29;89.26;100728.69;5097840;27;96710;-28
2023/12/10 10:14:55;;;;;;;7.82;1.00;;;;;;;9.25;89.08;100734.38;5078792;27;101373;-28
2023/12/10 10:17:32;;;;;;;2.80;0.63;;;;;;;9.20;89.48;100729.25;5097107;27;97982;-28
2023/12/10 10:19:58;;;;;;;0.70;0.35;;;;;;;9.13;89.55;100725.16;5078953;27;96632;-27
2023/12/10 10:22:24;;;;;;;2.38;0.65;;;;;;;9.12;89.71;100723.41;5079132;27;96894;-30
2023/12/10 10:24:54;;;;;;;1.65;0.52;;;;;;;9.19;90.18;100730.19;5078518;27;100933;-27
2023/12/10 10:27:20;;;;;;;5.07;0.75;;;;;;;9.17;90.01;100720.44;5096736;27;97838;-28
2023/12/10 10:29:48;;;;;;;3.53;0.63;;;;;;;9.24;90.12;100721.81;5078278;27;96482;-27
2023/12/10 10:32:18;;;;;;;10.73;0.95;;;;;;;9.32;90.01;100730.38;5097699;27;96738;-28
2023/12/10 10:34:45;;;;;;;4.60;0.77;;;;;;;9.42;89.86;100726.16;5078237;27;101091;-27
2023/12/10 10:37:10;;;;;;;3.00;0.38;;;;;;;9.60;89.42;100729.59;5078341;27;101002;-28
2023/12/10 10:39:37;;;;;;;2.63;0.82;;;;;;;9.77;88.86;100704.22;5078620;27;96664;-27
2023/12/10 10:42:07;;;;;;;1.30;0.60;;;;;;;9.98;87.96;100696.66;5078595;27;96790;-28
2023/12/10 10:44:33;;;;;;;4.82;1.00;;;;;;;10.13;87.88;100690.31;5078215;27;101031;-29
2023/12/10 10:47:00;;;;;;;3.33;1.00;;;;;;;10.20;87.23;100679.94;5097355;27;97887;-27
2023/12/10 10:49:26;;;;;;;21.60;1.08;;;;;;;10.43;87.30;100681.22;5078126;27;97691;-28
2023/12/10 10:51:53;;;;;;;9.80;1.20;;;;;;;10.69;86.43;100692.25;5078291;27;96961;-27
2023/12/10 10:54:19;;;;;;;8.88;1.33;;;;;;;10.81;85.68;100686.88;5076827;27;99047;-28
2023/12/10 10:56:44;;;;;;;1.88;0.40;;;;;;;10.82;85.64;100688.63;5077385;27;101547;-27
2023/12/10 10:59:30;;;;;;;0.93;0.17;;;;;;;11.05;85.25;100707.94;5096856;27;96562;-27
2023/12/10 11:02:06;;;;;;;7.07;0.55;;;;;;;11.13;84.41;100683.91;5078361;27;96743;-27
2023/12/10 11:04:38;;;;;;;5.47;0.88;;;;;;;11.21;83.69;100681.53;5078008;27;101167;-28
2023/12/10 11:07:07;;;;;;;5.10;0.45;;;;;;;11.22;82.92;100661.56;5077899;27;101034;-29
2023/12/10 11:09:58;;;;;;;2.00;0.65;;;;;;;11.37;83.12;100673.25;5078129;27;96721;-27
2023/12/10 11:12:39;;;;;;;2.35;0.68;;;;;;;11.48;82.49;100658.94;5096920;27;96811;-30
2023/12/10 11:15:05;;;;;;;3.22;0.73;;;;;;;11.43;82.28;100651.13;5096621;27;98087;-27
2023/12/10 11:17:30;;;;;;;4.95;0.55;;;;;;;11.33;82.42;100652.72;5077616;27;100825;-28
2023/12/10 11:19:59;;;;;;;0.50;0.25;;;;;;;11.13;83.28;100661.31;5096498;27;96593;-28
2023/12/10 11:22:24;;;;;;;2.05;0.63;;;;;;;10.97;84.68;100664.22;5078564;27;96825;-28
2023/12/10 11:24:50;;;;;;;1.52;0.40;;;;;;;10.89;84.74;100680.94;5096301;27;97979;-28
2023/12/10 11:27:16;;;;;;;4.72;0.60;;;;;;;10.81;85.69;100672.47;5077019;27;101053;-28